Time;durP1;ratioP1;P1;durP2;ratioP2;P2;SDS_P1;SDS_P2;PMS_P1;PMS_P2;Temp;Humidity;BMP_temperature;BMP_pressure;BME280_temperature;BME280_humidity;BME280_pressure;Samples;Min_cycle;Max_cycle;Signal;HPM_P1;HPM_P2
2022/05/04 00:00:26;;;;;;;18.88;9.25;;;;;;;9.74;97.90;98394.53;5046673;28;20032;-69
2022/05/04 00:02:52;;;;;;;17.58;10.15;;;;;;;9.73;98.87;98395.44;5046397;28;20108;-69
2022/05/04 00:05:18;;;;;;;22.70;9.68;;;;;;;9.81;99.42;98394.38;5046596;28;20063;-69
2022/05/04 00:07:44;;;;;;;19.10;9.68;;;;;;;9.92;99.02;98396.81;5046491;28;20022;-69
2022/05/04 00:10:11;;;;;;;23.73;8.98;;;;;;;9.91;98.00;98390.66;5046746;28;20029;-69
2022/05/04 00:12:37;;;;;;;25.95;10.45;;;;;;;9.88;97.23;98390.75;5046492;28;20026;-69
2022/05/04 00:15:03;;;;;;;25.17;10.93;;;;;;;9.80;97.00;98394.41;5046573;28;20108;-69
2022/05/04 00:17:28;;;;;;;19.25;10.50;;;;;;;9.75;97.67;98394.50;5046315;28;20021;-69
2022/05/04 00:19:54;;;;;;;24.00;10.80;;;;;;;9.72;97.66;98401.59;5046297;28;20029;-69
2022/05/04 00:22:21;;;;;;;27.15;11.02;;;;;;;9.78;97.43;98404.13;5046242;28;20025;-69
2022/05/04 00:24:47;;;;;;;28.10;13.00;;;;;;;9.71;96.86;98402.50;5046287;28;20021;-69
2022/05/04 00:27:15;;;;;;;26.73;11.70;;;;;;;9.49;96.28;98406.44;5046152;28;20379;-69
2022/05/04 00:29:44;;;;;;;25.52;10.20;;;;;;;9.31;97.13;98406.75;5046368;28;20334;-69
2022/05/04 00:32:14;;;;;;;27.10;9.48;;;;;;;9.33;97.82;98399.75;5063419;28;20029;-69
2022/05/04 00:34:40;;;;;;;23.60;10.25;;;;;;;9.29;97.08;98403.28;5046074;28;20324;-69
2022/05/04 00:37:06;;;;;;;17.00;9.40;;;;;;;9.26;97.61;98398.97;5047014;28;20093;-69
2022/05/04 00:39:31;;;;;;;23.08;10.73;;;;;;;9.21;98.15;98410.44;5066148;28;20210;-69
2022/05/04 00:42:15;;;;;;;20.50;9.00;;;;;;;9.28;97.43;98401.56;5065824;28;20064;-69
2022/05/04 00:44:42;;;;;;;22.00;10.40;;;;;;;9.12;96.63;98400.97;5065861;28;20032;-69
2022/05/04 00:47:08;;;;;;;21.75;9.18;;;;;;;9.04;96.68;98408.09;5065790;28;20032;-69
2022/05/04 00:49:34;;;;;;;14.35;8.43;;;;;;;9.13;96.74;98412.31;5065641;28;20050;-69
2022/05/04 00:52:01;;;;;;;16.25;8.43;;;;;;;9.07;96.19;98409.81;5065680;28;20286;-69
2022/05/04 00:54:26;;;;;;;20.80;9.43;;;;;;;9.02;96.30;98409.91;5065704;28;20031;-69
2022/05/04 00:56:53;;;;;;;17.02;9.23;;;;;;;8.74;96.51;98398.97;5065484;28;20021;-69
2022/05/04 00:59:21;;;;;;;15.57;9.63;;;;;;;8.76;97.87;98401.56;5065528;28;20048;-69
2022/05/04 01:01:46;;;;;;;19.05;9.35;;;;;;;8.74;98.02;98409.47;5065365;28;20252;-69
2022/05/04 01:04:12;;;;;;;16.17;8.80;;;;;;;8.76;97.63;98407.69;5064750;28;20101;-69
2022/05/04 01:06:38;;;;;;;17.13;9.70;;;;;;;8.65;96.48;98404.38;5063808;28;20017;-69
2022/05/04 01:09:04;;;;;;;21.00;9.00;;;;;;;8.55;97.62;98402.75;5063636;28;20025;-69
2022/05/04 01:11:29;;;;;;;23.20;9.75;;;;;;;8.55;97.28;98394.91;5065287;28;20091;-69
2022/05/04 01:14:08;;;;;;;14.35;9.00;;;;;;;8.58;97.52;98397.47;5065171;28;20320;-69
2022/05/04 01:16:35;;;;;;;14.18;8.98;;;;;;;8.64;96.78;98396.53;5065146;28;20032;-69
2022/05/04 01:19:01;;;;;;;15.35;9.20;;;;;;;8.53;97.21;98390.56;5065118;28;20028;-69
2022/05/04 01:21:27;;;;;;;27.92;10.95;;;;;;;8.30;98.08;98388.31;5052987;28;20032;-69
2022/05/04 01:23:57;;;;;;;19.23;10.25;;;;;;;8.21;99.03;98395.38;5045074;28;20029;-69
2022/05/04 01:26:22;;;;;;;21.40;10.23;;;;;;;8.05;99.81;98399.97;5045045;28;20024;-69
2022/05/04 01:28:48;;;;;;;20.83;9.75;;;;;;;8.03;98.37;98400.88;5045040;28;20085;-69
2022/05/04 01:31:14;;;;;;;18.17;9.60;;;;;;;8.06;97.71;98399.09;5044867;28;20293;-69
2022/05/04 01:33:39;;;;;;;16.98;9.35;;;;;;;7.97;98.82;98400.94;5045029;28;20079;-69
2022/05/04 01:36:06;;;;;;;20.50;9.18;;;;;;;8.03;98.36;98406.97;5044772;28;20017;-69
2022/05/04 01:38:32;;;;;;;18.40;9.85;;;;;;;7.89;98.26;98401.06;5044809;28;20021;-69
2022/05/04 01:40:57;;;;;;;15.57;8.98;;;;;;;7.85;98.61;98407.19;5044778;28;20029;-69
2022/05/04 01:43:23;;;;;;;18.73;9.88;;;;;;;7.77;97.63;98408.19;5044764;28;20029;-69
2022/05/04 01:45:49;;;;;;;17.23;8.65;;;;;;;7.65;97.96;98409.19;5044740;28;20059;-69
2022/05/04 01:48:14;;;;;;;17.17;9.45;;;;;;;7.60;98.27;98405.78;5044610;28;20317;-69
2022/05/04 01:50:39;;;;;;;16.38;9.52;;;;;;;7.50;99.32;98408.53;5044640;28;20021;-69
2022/05/04 01:53:06;;;;;;;16.05;9.60;;;;;;;7.41;100.00;98406.00;5044879;28;20047;-69
2022/05/04 01:55:33;;;;;;;17.73;9.52;;;;;;;7.42;100.00;98405.09;5044707;28;20029;-69
2022/05/04 01:57:59;;;;;;;16.30;8.98;;;;;;;7.46;100.00;98404.16;5044439;28;20216;-69
2022/05/04 02:00:25;;;;;;;15.43;9.40;;;;;;;7.43;99.42;98407.69;5044467;28;20017;-69
2022/05/04 02:02:51;;;;;;;18.70;10.18;;;;;;;7.43;99.20;98402.47;5044207;28;20045;-69
2022/05/04 02:05:17;;;;;;;17.80;9.88;;;;;;;7.43;99.42;98409.47;5044395;28;20088;-69
2022/05/04 02:07:43;;;;;;;20.60;10.45;;;;;;;7.52;98.95;98406.72;5044562;28;20021;-69
2022/05/04 02:10:10;;;;;;;19.60;10.45;;;;;;;7.48;98.90;98411.16;5045425;28;20025;-69
2022/05/04 02:12:36;;;;;;;17.58;10.18;;;;;;;7.49;98.78;98418.13;5063984;28;20088;-69
2022/05/04 02:15:05;;;;;;;13.73;9.13;;;;;;;7.49;98.81;98412.00;5064054;28;20075;-69
2022/05/04 02:17:31;;;;;;;23.52;10.10;;;;;;;7.44;98.30;98413.81;5064038;28;20027;-69
2022/05/04 02:19:57;;;;;;;15.40;9.30;;;;;;;7.51;97.74;98405.00;5063332;28;20052;-69
2022/05/04 02:22:22;;;;;;;19.67;9.77;;;;;;;7.50;97.47;98409.34;5063998;28;20032;-69
2022/05/04 02:24:47;;;;;;;16.90;9.82;;;;;;;7.34;98.01;98402.56;5064077;28;20216;-69
2022/05/04 02:27:13;;;;;;;18.35;10.15;;;;;;;7.30;98.51;98406.09;5063978;28;20243;-69
2022/05/04 02:29:38;;;;;;;20.42;10.55;;;;;;;7.29;98.75;98403.50;5064015;28;20292;-69
2022/05/04 02:32:04;;;;;;;19.23;10.27;;;;;;;7.33;98.99;98403.44;5063881;28;20016;-69
2022/05/04 02:34:30;;;;;;;16.42;9.85;;;;;;;7.25;98.80;98397.44;5063938;28;20052;-69
2022/05/04 02:39:39;;;;;;;19.30;9.57;;;;;;;7.27;98.66;98403.50;5063861;28;20031;-69
2022/05/04 02:42:05;;;;;;;20.85;11.10;;;;;;;7.28;98.63;98402.63;5063825;28;20025;-69
2022/05/04 02:44:30;;;;;;;17.05;9.82;;;;;;;7.12;97.97;98401.03;5044566;28;20029;-69
2022/05/04 02:46:55;;;;;;;18.67;9.80;;;;;;;6.77;97.68;98392.63;5043848;28;20067;-69
2022/05/04 02:49:21;;;;;;;20.35;10.52;;;;;;;6.65;98.82;98390.13;5043812;28;20025;-69
2022/05/04 02:51:46;;;;;;;17.95;9.55;;;;;;;6.74;100.00;98397.88;5043873;28;20221;-69
2022/05/04 02:54:12;;;;;;;16.73;9.93;;;;;;;6.74;100.00;98392.66;5043921;28;20021;-69
2022/05/04 02:56:37;;;;;;;17.13;9.57;;;;;;;6.92;99.53;98402.09;5043717;28;20089;-69
2022/05/04 02:59:03;;;;;;;18.35;10.73;;;;;;;6.82;99.33;98396.09;5043861;28;20025;-69
2022/05/04 03:04:13;;;;;;;18.55;9.68;;;;;;;6.84;99.82;98394.34;5063486;28;20056;-69
2022/05/04 03:06:41;;;;;;;21.10;10.65;;;;;;;6.81;99.93;98399.59;5063637;28;20013;-69
2022/05/04 03:09:08;;;;;;;18.15;9.95;;;;;;;6.95;99.83;98392.47;5063597;28;20060;-69
2022/05/04 03:14:20;;;;;;;19.50;9.65;;;;;;;7.07;99.18;98402.84;5043630;28;20128;-69
2022/05/04 03:16:46;;;;;;;19.38;10.25;;;;;;;6.99;98.08;98399.41;5043777;28;20037;-69
2022/05/04 03:19:12;;;;;;;17.10;9.48;;;;;;;6.96;98.78;98399.44;5043557;28;20025;-69
2022/05/04 03:21:37;;;;;;;18.88;9.43;;;;;;;7.02;98.84;98409.84;5058436;28;20025;-69
2022/05/04 03:24:03;;;;;;;17.33;9.70;;;;;;;7.14;98.65;98409.75;5063436;28;20217;-69
2022/05/04 03:26:29;;;;;;;22.50;9.75;;;;;;;7.12;98.01;98410.66;5063650;28;20352;-69
2022/05/04 03:28:55;;;;;;;21.92;9.23;;;;;;;7.12;98.39;98406.25;5063367;28;20329;-69
2022/05/04 03:31:20;;;;;;;19.33;8.77;;;;;;;7.16;97.71;98408.00;5064061;28;20017;-69
2022/05/04 03:33:46;;;;;;;14.85;9.05;;;;;;;7.11;98.25;98408.91;5067193;28;20020;-69
2022/05/04 03:36:11;;;;;;;23.90;9.88;;;;;;;7.18;98.90;98410.59;5067138;28;20208;-69
2022/05/04 03:38:37;;;;;;;18.80;10.57;;;;;;;7.29;98.72;98409.59;5067088;28;20316;-69
2022/05/04 03:41:03;;;;;;;18.45;10.35;;;;;;;7.35;98.79;98412.16;5066995;28;20029;-69
2022/05/04 03:43:28;;;;;;;20.35;9.25;;;;;;;7.17;97.28;98401.88;5066938;28;20021;-69
2022/05/04 03:45:54;;;;;;;16.33;9.65;;;;;;;6.96;98.16;98394.19;5066923;28;20016;-69
2022/05/04 03:48:20;;;;;;;22.00;10.27;;;;;;;6.96;99.25;98409.91;5066960;28;20288;-69
2022/05/04 03:50:46;;;;;;;16.48;10.52;;;;;;;7.08;98.70;98411.56;5059886;28;20075;-69
2022/05/04 03:53:15;;;;;;;25.65;11.43;;;;;;;7.12;98.45;98419.34;5046813;28;20029;-69
2022/05/04 03:55:40;;;;;;;22.13;10.40;;;;;;;7.18;98.93;98416.69;5046719;28;20337;-69
2022/05/04 03:58:06;;;;;;;24.60;10.27;;;;;;;7.27;98.74;98411.34;5046707;28;20028;-69
2022/05/04 04:00:31;;;;;;;15.55;9.48;;;;;;;7.22;98.10;98418.41;5046697;28;20021;-69
2022/05/04 04:02:57;;;;;;;16.55;9.57;;;;;;;7.21;97.21;98421.03;5046473;28;20148;-69
2022/05/04 04:05:23;;;;;;;16.35;11.00;;;;;;;7.01;97.66;98413.34;5046617;28;20376;-69
2022/05/04 04:07:49;;;;;;;23.20;11.98;;;;;;;6.72;99.39;98407.50;5045185;28;20044;-69
2022/05/04 04:10:14;;;;;;;20.48;9.10;;;;;;;6.87;100.00;98403.91;5045546;28;20025;-69
2022/05/04 04:12:40;;;;;;;19.48;9.77;;;;;;;7.07;99.93;98413.31;5045580;28;20135;-69
2022/05/04 04:15:06;;;;;;;19.58;10.75;;;;;;;7.16;99.27;98413.22;5052284;28;20020;-69
2022/05/04 04:17:31;;;;;;;18.58;11.40;;;;;;;7.11;99.59;98409.78;5065406;28;20056;-69
2022/05/04 04:22:40;;;;;;;21.23;11.07;;;;;;;7.10;98.45;98412.41;5065326;28;20063;-69
2022/05/04 04:25:06;;;;;;;16.58;9.82;;;;;;;7.18;98.22;98410.59;5065319;28;20205;-69
2022/05/04 04:27:33;;;;;;;21.35;11.32;;;;;;;7.18;97.37;98414.06;5055788;28;20072;-69
2022/05/04 04:29:59;;;;;;;17.95;10.07;;;;;;;7.24;97.46;98423.63;5055827;28;20095;-69
2022/05/04 04:32:24;;;;;;;16.42;10.02;;;;;;;7.28;97.18;98423.56;5064054;28;20320;-69
2022/05/04 04:34:50;;;;;;;19.02;9.68;;;;;;;7.24;96.84;98421.00;5065469;28;20040;-69
2022/05/04 04:37:16;;;;;;;17.52;10.20;;;;;;;7.13;96.98;98428.97;5061248;28;20028;-69
2022/05/04 04:39:41;;;;;;;16.42;9.70;;;;;;;7.12;96.25;98431.59;5065925;28;20080;-69
2022/05/04 04:42:07;;;;;;;20.98;10.63;;;;;;;6.99;97.22;98430.81;5065937;28;20024;-69
2022/05/04 04:44:32;;;;;;;19.95;9.93;;;;;;;7.00;97.46;98432.56;5064944;28;20044;-69
2022/05/04 04:46:58;;;;;;;21.17;10.93;;;;;;;7.07;97.69;98439.47;5065815;28;20370;-69
2022/05/04 04:49:25;;;;;;;17.67;10.15;;;;;;;7.04;97.56;98444.72;5065713;28;20374;-69
2022/05/04 04:51:51;;;;;;;18.30;9.15;;;;;;;7.14;97.05;98446.38;5065633;28;20025;-69
2022/05/04 04:54:16;;;;;;;17.40;9.60;;;;;;;7.08;96.37;98451.66;5065699;28;20048;-69
2022/05/04 04:56:42;;;;;;;16.20;10.20;;;;;;;6.86;97.10;98439.63;5065583;28;20057;-69
2022/05/04 04:59:08;;;;;;;22.67;11.48;;;;;;;6.86;98.46;98446.63;5065556;28;20055;-69
2022/05/04 05:01:33;;;;;;;18.77;9.88;;;;;;;7.09;98.62;98450.78;5065381;28;20316;-69
2022/05/04 05:03:58;;;;;;;25.45;11.70;;;;;;;7.23;98.78;98451.53;5065372;28;20431;-69
2022/05/04 05:06:25;;;;;;;23.15;12.57;;;;;;;7.66;98.33;98447.59;5065405;28;20024;-69
2022/05/04 05:08:50;;;;;;;21.67;9.90;;;;;;;7.96;96.22;98454.25;5065643;28;20021;-69
2022/05/04 05:11:16;;;;;;;23.58;12.05;;;;;;;7.94;95.87;98456.88;5065319;28;20028;-69
2022/05/04 05:16:26;;;;;;;17.80;8.75;;;;;;;8.68;94.89;98446.28;5065169;28;20108;-69
2022/05/04 05:18:52;;;;;;;16.60;9.65;;;;;;;9.30;92.48;98452.31;5065197;28;20328;-69
2022/05/04 05:21:17;;;;;;;17.80;9.15;;;;;;;9.98;89.90;98459.78;5065133;28;20032;-69
2022/05/04 05:23:43;;;;;;;17.83;10.15;;;;;;;10.39;87.72;98450.19;5065113;28;20087;-69
2022/05/04 05:26:08;;;;;;;16.85;10.25;;;;;;;10.76;86.47;98455.50;5065114;28;20017;-69
2022/05/04 05:28:34;;;;;;;14.15;8.32;;;;;;;11.29;84.32;98460.31;5064988;28;20044;-69
2022/05/04 05:30:59;;;;;;;16.33;9.82;;;;;;;11.62;81.86;98462.16;5064933;28;20336;-69
2022/05/04 05:33:25;;;;;;;13.32;8.00;;;;;;;11.93;80.22;98460.41;5064925;28;20048;-69
2022/05/04 05:35:50;;;;;;;12.25;7.30;;;;;;;12.17;79.90;98459.72;5064780;28;20031;-69
2022/05/04 05:38:16;;;;;;;12.90;8.38;;;;;;;12.61;78.25;98467.22;5064871;28;20088;-69
2022/05/04 05:40:42;;;;;;;14.23;7.28;;;;;;;12.73;78.08;98460.72;5064780;28;20084;-69
2022/05/04 05:43:07;;;;;;;20.30;9.00;;;;;;;12.61;77.48;98456.66;5064948;28;20028;-69
2022/05/04 05:45:33;;;;;;;16.00;7.65;;;;;;;12.88;76.67;98465.53;5064657;28;20240;-69
2022/05/04 05:47:58;;;;;;;16.02;8.52;;;;;;;12.57;77.44;98465.56;5064644;28;20021;-69
2022/05/04 05:50:24;;;;;;;17.00;8.70;;;;;;;12.20;78.20;98461.41;5064593;28;20028;-69
2022/05/04 05:52:50;;;;;;;16.98;9.00;;;;;;;11.64;82.72;98457.69;5064602;28;20032;-69
2022/05/04 05:55:15;;;;;;;14.82;8.35;;;;;;;12.10;82.96;98466.09;5064287;28;20092;-69
2022/05/04 05:57:40;;;;;;;19.17;7.95;;;;;;;12.83;80.10;98468.31;5064433;28;20024;-69
2022/05/04 06:00:07;;;;;;;12.35;8.98;;;;;;;13.61;78.34;98479.88;5064490;28;20024;-69
2022/05/04 06:02:33;;;;;;;13.75;8.38;;;;;;;14.31;75.46;98468.56;5064377;28;20021;-69
2022/05/04 06:04:58;;;;;;;15.50;9.18;;;;;;;14.98;73.21;98470.38;5064624;28;20358;-69
2022/05/04 06:07:24;;;;;;;15.13;8.90;;;;;;;15.45;72.16;98472.03;5064286;28;20029;-69
2022/05/04 06:09:50;;;;;;;12.05;8.23;;;;;;;15.87;71.98;98472.00;5064292;28;20025;-69
2022/05/04 06:12:16;;;;;;;14.90;8.48;;;;;;;16.41;69.97;98470.44;5064171;28;20044;-69
2022/05/04 06:14:42;;;;;;;17.67;9.43;;;;;;;16.84;69.38;98480.84;5064183;28;20036;-69
2022/05/04 06:17:07;;;;;;;16.50;8.93;;;;;;;17.25;67.61;98485.06;5064147;28;20025;-69
2022/05/04 06:19:32;;;;;;;20.65;9.32;;;;;;;17.49;66.58;98479.53;5064108;28;20032;-69
2022/05/04 06:21:58;;;;;;;16.58;8.88;;;;;;;18.09;64.71;98482.59;5064094;28;20028;-69
2022/05/04 06:24:26;;;;;;;15.80;8.90;;;;;;;18.35;64.45;98478.59;5064268;28;20016;-69
2022/05/04 06:26:51;;;;;;;17.08;9.43;;;;;;;18.42;63.52;98485.34;5064254;28;20041;-69
2022/05/04 06:29:17;;;;;;;13.18;8.70;;;;;;;18.54;63.33;98485.53;5063990;28;20048;-69
2022/05/04 06:34:26;;;;;;;11.65;8.15;;;;;;;19.02;62.59;98488.19;5063952;28;20067;-69
2022/05/04 06:36:52;;;;;;;14.32;7.57;;;;;;;19.57;61.00;98495.81;5063844;28;20017;-69
2022/05/04 06:39:17;;;;;;;13.23;8.13;;;;;;;19.95;60.32;98492.63;5064132;28;20366;-70
2022/05/04 06:41:42;;;;;;;12.55;7.88;;;;;;;20.29;57.84;98492.38;5063851;28;20021;-70
2022/05/04 06:44:08;;;;;;;15.50;8.20;;;;;;;20.52;57.68;98491.84;5063901;28;20025;-70
2022/05/04 06:46:38;;;;;;;12.88;7.88;;;;;;;20.61;57.55;98493.06;5064019;28;20017;-70
2022/05/04 06:49:03;;;;;;;12.93;7.78;;;;;;;20.96;56.72;98500.66;5063744;28;20062;-70
2022/05/04 06:51:29;;;;;;;12.07;7.63;;;;;;;20.90;58.30;98494.78;5063789;28;20029;-70
2022/05/04 06:53:54;;;;;;;12.77;7.85;;;;;;;20.97;56.28;98491.66;5063771;28;20062;-70
2022/05/04 06:56:20;;;;;;;11.05;7.05;;;;;;;21.16;53.66;98491.34;5063637;28;20092;-70
2022/05/04 06:58:46;;;;;;;11.55;7.55;;;;;;;21.64;52.51;98498.03;5063738;28;20036;-70
2022/05/04 07:01:12;;;;;;;9.60;6.15;;;;;;;21.91;51.54;98491.72;5063908;28;20198;-70
2022/05/04 07:03:38;;;;;;;13.57;6.65;;;;;;;21.36;51.34;98490.06;5063399;28;20037;-70
2022/05/04 07:06:04;;;;;;;11.52;7.00;;;;;;;20.72;53.52;98483.44;5063605;28;20031;-70
2022/05/04 07:08:30;;;;;;;13.55;6.75;;;;;;;21.47;55.39;98495.59;5067660;28;20328;-70
2022/05/04 07:10:55;;;;;;;10.15;6.82;;;;;;;21.34;51.64;98495.53;5067607;28;20025;-69
2022/05/04 07:13:21;;;;;;;9.38;5.85;;;;;;;20.35;51.18;98491.97;5067573;28;20025;-70
2022/05/04 07:15:47;;;;;;;9.73;6.15;;;;;;;21.23;50.00;98488.19;5067351;28;20024;-70
2022/05/04 07:18:12;;;;;;;11.82;5.90;;;;;;;22.02;48.77;98496.38;5067567;28;20025;-70
2022/05/04 07:20:37;;;;;;;8.55;5.43;;;;;;;22.24;49.17;98488.59;5067587;28;20025;-70
2022/05/04 07:23:03;;;;;;;7.88;5.70;;;;;;;22.52;49.55;98493.78;5067423;28;20025;-70
2022/05/04 07:25:28;;;;;;;8.05;5.53;;;;;;;21.87;46.48;98486.69;5067337;28;20028;-70
2022/05/04 07:27:54;;;;;;;8.27;5.50;;;;;;;22.23;46.64;98484.19;5067313;28;20224;-70
2022/05/04 07:30:19;;;;;;;11.48;6.18;;;;;;;20.85;49.39;98486.22;5067298;28;20306;-70
2022/05/04 07:32:46;;;;;;;9.57;5.15;;;;;;;20.65;49.29;98484.78;5067262;28;20084;-70
2022/05/04 07:35:11;;;;;;;9.80;5.32;;;;;;;21.02;49.75;98494.94;5067125;28;20017;-70
2022/05/04 07:37:37;;;;;;;8.18;5.25;;;;;;;20.93;49.62;98484.78;5067402;28;20024;-70
2022/05/04 07:42:47;;;;;;;10.93;5.88;;;;;;;21.00;48.58;98491.47;5067026;28;20023;-70
2022/05/04 07:45:13;;;;;;;7.65;5.22;;;;;;;22.81;46.46;98495.31;5066972;28;20025;-70
2022/05/04 07:47:39;;;;;;;7.50;5.05;;;;;;;22.88;47.41;98485.84;5067242;28;20071;-70
2022/05/04 07:50:07;;;;;;;8.40;5.30;;;;;;;23.14;46.33;98498.25;5066907;28;20052;-70
2022/05/04 07:52:33;;;;;;;7.97;5.13;;;;;;;22.75;49.00;98487.69;5066823;28;20320;-70
2022/05/04 07:54:59;;;;;;;8.70;4.70;;;;;;;23.65;48.71;98501.69;5066686;28;20021;-70
2022/05/04 07:57:25;;;;;;;11.02;5.03;;;;;;;24.40;46.40;98499.50;5066714;28;20059;-70
2022/05/04 08:05:24;;;;;;;6.95;4.75;;;;;;;23.18;46.74;98489.00;5066583;28;20024;-70
2022/05/04 08:07:50;;;;;;;8.20;4.75;;;;;;;23.24;47.57;98489.47;5066539;28;20025;-70
2022/05/04 08:10:16;;;;;;;7.40;5.03;;;;;;;22.90;47.23;98497.31;5066560;28;20059;-70
2022/05/04 08:12:41;;;;;;;12.73;5.35;;;;;;;22.50;48.02;98490.38;5066513;28;20021;-70
2022/05/04 08:15:07;;;;;;;7.53;4.90;;;;;;;22.36;48.76;98487.72;5066628;28;20216;-70
2022/05/04 08:17:33;;;;;;;7.78;5.22;;;;;;;22.49;49.16;98491.28;5065737;28;20021;-70
2022/05/04 08:19:59;;;;;;;8.27;5.45;;;;;;;23.37;47.01;98493.94;5065569;28;20025;-70
2022/05/04 08:22:25;;;;;;;6.72;4.78;;;;;;;24.00;46.29;98503.50;5066314;28;20028;-70
2022/05/04 08:24:51;;;;;;;7.60;5.57;;;;;;;24.74;43.83;98508.53;5066412;28;20025;-70
2022/05/04 08:27:17;;;;;;;6.93;4.90;;;;;;;24.97;43.17;98515.66;5066164;28;20021;-70
2022/05/04 08:29:44;;;;;;;7.88;4.40;;;;;;;25.21;42.46;98517.22;5066380;28;20031;-70
2022/05/04 08:32:10;;;;;;;8.93;4.88;;;;;;;25.06;43.45;98515.75;5066028;28;20059;-70
2022/05/04 08:34:35;;;;;;;8.82;5.18;;;;;;;25.27;44.44;98514.06;5066009;28;20025;-70
2022/05/04 08:37:01;;;;;;;8.20;4.88;;;;;;;25.51;43.59;98513.06;5065918;28;20092;-70
2022/05/04 08:39:26;;;;;;;6.70;5.07;;;;;;;25.57;42.21;98513.44;5066214;28;20032;-70
2022/05/04 08:41:52;;;;;;;8.38;4.70;;;;;;;25.57;43.03;98512.56;5065923;28;20093;-70
2022/05/04 08:44:18;;;;;;;5.95;4.97;;;;;;;25.84;42.09;98513.00;5065938;28;20020;-70
2022/05/04 08:46:44;;;;;;;8.65;5.13;;;;;;;25.46;42.56;98507.22;5065800;28;20328;-70
2022/05/04 08:49:12;;;;;;;7.90;5.90;;;;;;;25.68;41.86;98512.53;5064663;28;20288;-70
2022/05/04 08:51:39;;;;;;;8.45;4.90;;;;;;;24.87;41.60;98509.28;5065821;28;20047;-70
2022/05/04 08:54:06;;;;;;;9.38;5.82;;;;;;;24.26;44.30;98506.88;5065675;28;20040;-70
2022/05/04 08:56:33;;;;;;;12.00;6.03;;;;;;;23.29;46.11;98503.41;5065570;28;20025;-70
2022/05/04 08:59:00;;;;;;;11.15;6.15;;;;;;;22.46;48.17;98499.56;5065560;28;20070;-70
2022/05/04 09:01:25;;;;;;;8.75;5.68;;;;;;;22.72;48.88;98501.31;5065580;28;20048;-70
2022/05/04 09:03:51;;;;;;;7.82;5.82;;;;;;;23.01;48.17;98514.38;5065259;28;20056;-70
2022/05/04 09:06:26;;;;;;;11.75;5.68;;;;;;;22.47;48.64;98504.84;5065491;28;20040;-70
2022/05/04 09:08:58;;;;;;;11.27;5.80;;;;;;;22.42;49.59;98498.03;5065420;28;20342;-70
2022/05/04 09:11:24;;;;;;;9.57;6.13;;;;;;;22.61;49.05;98503.88;5065389;28;20025;-70
2022/05/04 09:13:51;;;;;;;8.25;5.43;;;;;;;22.69;50.25;98496.16;5065331;28;20024;-70
2022/05/04 09:16:32;;;;;;;10.82;5.97;;;;;;;22.16;51.23;98497.16;5065469;28;20245;-69
2022/05/04 09:19:07;;;;;;;8.60;5.57;;;;;;;23.28;49.00;98495.47;5065255;28;20021;-69
2022/05/04 09:21:33;;;;;;;9.95;5.57;;;;;;;24.40;47.22;98499.50;5065171;28;20021;-69
2022/05/04 09:23:58;;;;;;;9.45;5.68;;;;;;;25.20;45.54;98502.06;5065110;28;20083;-69
2022/05/04 09:26:24;;;;;;;12.25;5.65;;;;;;;25.47;43.87;98508.91;5065125;28;20378;-69
2022/05/04 09:29:01;;;;;;;8.85;5.78;;;;;;;25.61;45.09;98504.13;5065108;28;20239;-69
2022/05/04 09:31:28;;;;;;;7.68;5.38;;;;;;;25.90;42.09;98501.69;5064951;28;20085;-69
2022/05/04 09:34:01;;;;;;;9.45;5.32;;;;;;;25.98;41.47;98499.25;5064894;28;20046;-69
2022/05/04 09:36:38;;;;;;;9.52;5.28;;;;;;;26.09;41.39;98505.47;5064810;28;20021;-69
2022/05/04 09:45:05;;;;;;;7.35;4.88;;;;;;;26.56;42.31;98498.72;5064711;28;20355;-70
2022/05/04 09:47:35;;;;;;;8.35;5.07;;;;;;;26.65;41.52;98490.72;5064660;28;20217;-70
2022/05/04 09:50:03;;;;;;;9.10;5.35;;;;;;;26.68;40.89;98495.00;5064615;28;20092;-70
2022/05/04 09:52:40;;;;;;;7.90;5.13;;;;;;;26.48;42.54;98485.88;5064837;28;20025;-70
2022/05/04 09:55:14;;;;;;;7.35;5.20;;;;;;;26.46;42.82;98484.31;5064702;28;20062;-70
2022/05/04 09:57:40;;;;;;;6.40;4.70;;;;;;;26.70;40.89;98493.88;5064521;28;20021;-70
2022/05/04 10:00:07;;;;;;;11.18;4.70;;;;;;;27.02;42.33;98493.78;5064436;28;20074;-70
2022/05/04 10:02:32;;;;;;;8.27;4.65;;;;;;;27.05;41.38;98494.34;5064102;28;20054;-70
2022/05/04 10:04:59;;;;;;;8.50;4.55;;;;;;;26.93;42.84;98486.47;5064355;28;20328;-70
2022/05/04 10:07:26;;;;;;;6.40;4.53;;;;;;;26.94;40.92;98485.47;5064321;28;20365;-70
2022/05/04 10:09:53;;;;;;;6.13;4.35;;;;;;;26.94;41.29;98480.06;5064520;28;20048;-70
2022/05/04 10:12:19;;;;;;;6.13;4.40;;;;;;;27.00;39.44;98482.25;5064197;28;20308;-70
2022/05/04 10:14:45;;;;;;;5.25;3.97;;;;;;;26.35;40.15;98479.81;5064451;28;20036;-70
2022/05/04 10:17:19;;;;;;;7.97;4.30;;;;;;;26.75;41.89;98475.44;5064381;28;20217;-70
2022/05/04 10:19:47;;;;;;;5.90;4.00;;;;;;;26.88;39.63;98475.19;5064195;28;20024;-70
2022/05/04 10:22:22;;;;;;;6.88;5.15;;;;;;;27.05;39.38;98471.91;5064110;28;20028;-70
2022/05/04 10:24:48;;;;;;;7.05;4.68;;;;;;;26.99;40.38;98467.03;5064171;28;20020;-70
2022/05/04 10:27:19;;;;;;;7.97;4.55;;;;;;;26.79;40.98;98470.59;5064045;28;20020;-70
2022/05/04 10:32:47;;;;;;;8.27;4.47;;;;;;;26.37;42.09;98463.50;5063957;28;20028;-70
2022/05/04 10:35:13;;;;;;;5.47;4.22;;;;;;;26.55;42.83;98448.41;5063910;28;20021;-70
2022/05/04 10:37:59;;;;;;;6.50;4.43;;;;;;;26.66;41.63;98454.63;5063901;28;20029;-70
2022/05/04 10:40:32;;;;;;;6.70;4.22;;;;;;;26.93;40.31;98456.75;5063740;28;20032;-70
2022/05/04 10:43:04;;;;;;;8.55;4.55;;;;;;;26.22;43.02;98443.22;5063324;28;20063;-70
2022/05/04 10:45:37;;;;;;;6.65;4.72;;;;;;;25.75;42.49;98451.75;5063839;28;20017;-70
2022/05/04 10:48:18;;;;;;;5.00;3.95;;;;;;;26.01;42.54;98439.66;5063799;28;20029;-70
2022/05/04 10:51:04;;;;;;;8.35;4.93;;;;;;;25.73;40.02;98433.00;5063792;28;20023;-70
2022/05/04 10:53:33;;;;;;;4.65;3.88;;;;;;;25.58;42.81;98436.97;5063752;28;20021;-70
2022/05/04 10:56:01;;;;;;;6.75;4.05;;;;;;;25.88;42.84;98430.88;5063651;28;20232;-70
2022/05/04 10:58:52;;;;;;;4.82;3.65;;;;;;;26.06;40.35;98432.88;5063686;28;20382;-70
2022/05/04 11:01:23;;;;;;;10.82;4.55;;;;;;;25.75;38.96;98424.78;5063763;28;20025;-70
2022/05/04 11:04:10;;;;;;;7.97;4.32;;;;;;;25.21;39.99;98425.63;5063529;28;20133;-70
2022/05/04 11:06:52;;;;;;;6.90;4.20;;;;;;;24.98;43.32;98412.31;5063628;28;20032;-70
2022/05/04 11:09:20;;;;;;;;;;;;;;;25.66;40.60;98412.94;5064041;28;20304;-70
2022/05/04 11:11:48;;;;;;;5.93;4.25;;;;;;;25.71;41.93;98417.91;5063881;28;20206;-70
2022/05/04 11:14:15;;;;;;;5.22;3.92;;;;;;;25.71;40.05;98410.69;5063563;28;20074;-70
2022/05/04 11:16:42;;;;;;;4.80;3.70;;;;;;;25.37;41.83;98414.47;5063556;28;20045;-70
2022/05/04 11:19:08;;;;;;;5.95;4.18;;;;;;;24.26;42.37;98399.28;5063844;28;20316;-70
2022/05/04 11:21:37;;;;;;;8.27;4.22;;;;;;;24.11;42.15;98406.72;5063780;28;20203;-70
2022/05/04 11:24:24;;;;;;;7.53;3.65;;;;;;;23.24;41.32;98397.28;5063716;28;20068;-70
2022/05/04 11:26:50;;;;;;;8.63;4.07;;;;;;;22.96;43.96;98400.25;5063493;28;20080;-70
2022/05/04 11:29:19;;;;;;;5.53;3.67;;;;;;;22.41;45.67;98397.09;5063396;28;20032;-70
2022/05/04 11:31:56;;;;;;;5.22;3.63;;;;;;;21.93;44.97;98396.03;5063456;28;20021;-70
2022/05/04 11:34:23;;;;;;;5.25;4.00;;;;;;;21.12;44.78;98394.34;5063423;28;20024;-70
2022/05/04 11:36:50;;;;;;;6.63;4.07;;;;;;;20.82;49.37;98396.28;5063318;28;20032;-70
2022/05/04 11:39:22;;;;;;;7.20;4.20;;;;;;;21.26;50.57;98405.00;5063339;28;20328;-70
2022/05/04 11:41:49;;;;;;;6.45;4.10;;;;;;;21.21;52.01;98396.44;5063416;28;20336;-70
2022/05/04 11:44:15;;;;;;;6.28;4.18;;;;;;;21.33;52.90;98395.59;5063551;28;20021;-70
2022/05/04 11:46:44;;;;;;;6.18;4.05;;;;;;;21.35;50.39;98394.66;5063300;28;20221;-70
2022/05/04 11:49:11;;;;;;;5.50;3.83;;;;;;;21.31;50.60;98394.00;5063320;28;20035;-70
2022/05/04 11:51:37;;;;;;;6.75;4.70;;;;;;;20.62;52.58;98382.47;5063196;28;20025;-70
2022/05/04 11:54:03;;;;;;;7.13;4.00;;;;;;;20.80;51.82;98387.53;5066210;28;20328;-70
2022/05/04 11:56:29;;;;;;;5.45;4.10;;;;;;;21.03;51.42;98389.59;5066734;28;20020;-70
2022/05/04 11:58:54;;;;;;;10.05;5.20;;;;;;;20.78;50.49;98384.06;5066767;28;20020;-70
2022/05/04 12:01:20;;;;;;;5.82;4.07;;;;;;;21.01;51.93;98379.97;5066758;28;20029;-70